Time;durP1;ratioP1;P1;durP2;ratioP2;P2;SDS_P1;SDS_P2;PMS_P1;PMS_P2;Temp;Humidity;BMP_temperature;BMP_pressure;BME280_temperature;BME280_humidity;BME280_pressure;Samples;Min_cycle;Max_cycle;Signal;HPM_P1;HPM_P2
2022/03/26 00:00:06;;;;;;;22.25;19.60;;;6.20;99.90;;;;;;4997099;28;20026;-68
2022/03/26 00:02:32;;;;;;;35.45;29.95;;;6.10;99.90;;;;;;4995784;28;20033;-68
2022/03/26 00:04:57;;;;;;;37.47;30.48;;;6.10;99.90;;;;;;4995846;28;20042;-68
2022/03/26 00:07:23;;;;;;;22.23;18.55;;;6.00;99.90;;;;;;4996493;28;20022;-68
2022/03/26 00:09:49;;;;;;;37.92;31.10;;;6.10;99.90;;;;;;4990804;28;20053;-68
2022/03/26 00:12:14;;;;;;;15.10;11.80;;;6.00;99.90;;;;;;4997906;28;20065;-68
2022/03/26 00:14:40;;;;;;;23.70;19.88;;;6.00;99.90;;;;;;4996218;28;20121;-68
2022/03/26 00:17:06;;;;;;;24.25;18.27;;;6.00;99.90;;;;;;4995362;28;20381;-68
2022/03/26 00:19:32;;;;;;;24.38;17.50;;;6.20;99.90;;;;;;4994463;28;20030;-67
2022/03/26 00:21:58;;;;;;;22.23;17.17;;;6.20;99.90;;;;;;4992725;28;20076;-68
2022/03/26 00:24:23;;;;;;;30.95;21.15;;;6.30;99.90;;;;;;4995640;28;20023;-67
2022/03/26 00:26:49;;;;;;;37.90;25.30;;;6.20;99.90;;;;;;4996605;28;20026;-68
2022/03/26 00:29:15;;;;;;;25.88;16.33;;;6.20;99.90;;;;;;4994913;28;20034;-68
2022/03/26 00:31:41;;;;;;;31.67;20.55;;;6.00;99.90;;;;;;4993607;28;20038;-67
2022/03/26 00:34:07;;;;;;;9.48;6.95;;;5.90;99.90;;;;;;4994119;28;20040;-68
2022/03/26 00:36:33;;;;;;;14.75;9.75;;;6.10;99.90;;;;;;4993161;28;20046;-68
2022/03/26 00:38:59;;;;;;;30.13;17.70;;;6.00;99.90;;;;;;4995693;28;20089;-67
2022/03/26 00:41:25;;;;;;;9.82;6.88;;;5.80;99.90;;;;;;4995011;28;20034;-68
2022/03/26 00:43:51;;;;;;;20.27;11.25;;;5.70;99.90;;;;;;4995610;28;20090;-67
2022/03/26 00:46:17;;;;;;;17.00;9.70;;;5.80;99.90;;;;;;4994754;28;20448;-67
2022/03/26 00:48:43;;;;;;;18.83;10.80;;;5.80;99.90;;;;;;4989269;28;20038;-67
2022/03/26 00:51:10;;;;;;;11.18;8.32;;;5.70;99.90;;;;;;4996880;28;20031;-67
2022/03/26 00:53:35;;;;;;;21.08;12.80;;;5.60;99.90;;;;;;4995223;28;20037;-67
2022/03/26 00:56:01;;;;;;;17.23;10.77;;;5.50;99.90;;;;;;4994708;28;20054;-67
2022/03/26 00:58:27;;;;;;;12.23;8.77;;;5.40;99.90;;;;;;4993894;28;20030;-67
2022/03/26 01:00:53;;;;;;;14.85;8.73;;;5.30;99.90;;;;;;4991416;28;20027;-67
2022/03/26 01:03:18;;;;;;;8.25;6.93;;;5.20;99.90;;;;;;4995658;28;20023;-67
2022/03/26 01:05:44;;;;;;;16.83;10.10;;;5.20;99.90;;;;;;4996073;28;20405;-67
2022/03/26 01:08:10;;;;;;;18.83;11.25;;;5.20;99.90;;;;;;4995027;28;20105;-67
2022/03/26 01:10:36;;;;;;;14.50;9.88;;;5.10;99.90;;;;;;4994860;28;20030;-67
2022/03/26 01:13:03;;;;;;;17.10;10.27;;;5.00;99.90;;;;;;4992634;28;20065;-68
2022/03/26 01:15:29;;;;;;;12.35;9.07;;;5.00;99.90;;;;;;4993128;28;20014;-67
2022/03/26 01:17:55;;;;;;;9.38;7.30;;;4.80;99.90;;;;;;4994459;28;20034;-67
2022/03/26 01:20:21;;;;;;;7.90;7.07;;;4.90;99.90;;;;;;4995153;28;20033;-67
2022/03/26 01:22:47;;;;;;;12.65;8.73;;;4.90;99.90;;;;;;4993643;28;20026;-67
2022/03/26 01:25:14;;;;;;;10.73;7.75;;;5.00;99.90;;;;;;4993910;28;20032;-67
2022/03/26 01:27:39;;;;;;;9.15;6.47;;;5.00;99.90;;;;;;4990886;28;20031;-67
2022/03/26 01:30:06;;;;;;;7.50;6.28;;;4.80;99.90;;;;;;4995499;28;20106;-67
2022/03/26 01:32:32;;;;;;;10.15;8.10;;;4.70;99.90;;;;;;4994370;28;20085;-66
2022/03/26 01:34:58;;;;;;;9.77;7.43;;;4.70;99.90;;;;;;4994937;28;20030;-67
2022/03/26 01:37:24;;;;;;;7.70;6.93;;;4.70;99.90;;;;;;4991957;28;20029;-66
2022/03/26 01:39:51;;;;;;;9.13;7.68;;;4.70;99.90;;;;;;4989392;28;20031;-67
2022/03/26 01:42:17;;;;;;;8.15;7.22;;;4.70;99.90;;;;;;4996210;28;20129;-67
2022/03/26 01:44:44;;;;;;;9.65;7.90;;;4.60;99.90;;;;;;4994683;28;20541;-67
2022/03/26 01:47:10;;;;;;;8.43;7.50;;;4.50;99.90;;;;;;4993091;28;20475;-67
2022/03/26 01:49:37;;;;;;;10.20;8.15;;;4.50;99.90;;;;;;4994397;28;20077;-67
2022/03/26 01:52:04;;;;;;;15.73;9.80;;;4.50;99.90;;;;;;4992638;28;20058;-67
2022/03/26 01:54:31;;;;;;;16.23;10.55;;;4.50;99.90;;;;;;4992845;28;20038;-67
2022/03/26 01:56:58;;;;;;;14.63;10.32;;;4.50;99.90;;;;;;4994404;28;20403;-67
2022/03/26 01:59:24;;;;;;;15.95;10.10;;;4.40;99.90;;;;;;4994141;28;20127;-67
2022/03/26 02:01:50;;;;;;;14.52;8.90;;;4.40;99.90;;;;;;4994212;28;20030;-67
2022/03/26 02:04:17;;;;;;;10.75;7.68;;;4.40;99.90;;;;;;4994279;28;20049;-67
2022/03/26 02:06:42;;;;;;;8.60;7.40;;;4.40;99.90;;;;;;4991634;28;20039;-67
2022/03/26 02:09:10;;;;;;;8.57;7.30;;;4.40;99.90;;;;;;4999698;28;20073;-67
2022/03/26 02:11:38;;;;;;;8.18;6.85;;;4.40;99.90;;;;;;4998062;28;20046;-67
2022/03/26 02:14:07;;;;;;;9.95;7.53;;;4.40;99.90;;;;;;4998401;28;20057;-67
2022/03/26 02:16:34;;;;;;;10.88;7.80;;;4.30;99.90;;;;;;4996564;28;20033;-66
2022/03/26 02:19:00;;;;;;;9.52;7.38;;;4.20;99.90;;;;;;4995668;28;20065;-67
2022/03/26 02:21:27;;;;;;;8.73;7.63;;;;;;;;;;4997154;28;20030;-67
2022/03/26 02:23:53;;;;;;;11.35;8.30;;;;;;;;;;4999324;28;20480;-66
2022/03/26 02:26:26;;;;;;;10.48;8.00;;;;;;;;;;4997748;28;20491;-67
2022/03/26 02:28:56;;;;;;;9.73;8.73;;;;;;;;;;4998150;28;20026;-67
2022/03/26 02:31:22;;;;;;;10.98;8.60;;;;;;;;;;4997812;28;20088;-67
2022/03/26 02:33:49;;;;;;;9.65;8.27;;;;;;;;;;4992010;28;20076;-67
2022/03/26 02:36:15;;;;;;;11.25;8.10;;;;;;;;;;4999997;28;20035;-67
2022/03/26 02:38:42;;;;;;;11.20;8.55;;;;;;;;;;4997693;28;20027;-67
2022/03/26 02:41:08;;;;;;;11.00;8.93;;;;;;;;;;4997380;28;20527;-67
2022/03/26 02:43:35;;;;;;;12.35;8.73;;;;;;;;;;4996307;28;20403;-67
2022/03/26 02:46:01;;;;;;;14.10;9.02;;;;;;;;;;4993673;28;20026;-67
2022/03/26 02:48:28;;;;;;;12.40;8.98;;;;;;;;;;4996591;28;20022;-67
2022/03/26 02:50:54;;;;;;;13.82;9.00;;;;;;;;;;4997266;28;20030;-67
2022/03/26 02:53:20;;;;;;;14.98;9.95;;;;;;;;;;4997376;28;20509;-67
2022/03/26 02:55:47;;;;;;;11.15;8.05;;;;;;;;;;4996230;28;20487;-67
2022/03/26 02:58:13;;;;;;;10.07;8.20;;;;;;;;;;4996111;28;20026;-67
2022/03/26 03:00:39;;;;;;;10.43;7.45;;;;;;;;;;4994362;28;20090;-68
2022/03/26 03:03:06;;;;;;;8.32;7.47;;;;;;;;;;4999394;28;20065;-67
2022/03/26 03:05:33;;;;;;;11.55;6.93;;;;;;;;;;4997223;28;20455;-67
2022/03/26 03:08:00;;;;;;;8.73;6.78;;;;;;;;;;4997517;28;20037;-67
2022/03/26 03:10:27;;;;;;;7.90;6.88;;;4.70;99.90;;;;;;4996801;28;20022;-67
2022/03/26 03:12:53;;;;;;;8.30;7.20;;;4.40;99.90;;;;;;4991826;28;20054;-67
2022/03/26 03:15:20;;;;;;;8.73;7.32;;;;;;;;;;4997803;28;20414;-67
2022/03/26 03:17:48;;;;;;;8.10;7.32;;;;;;;;;;4995479;28;20403;-67
2022/03/26 03:20:15;;;;;;;9.43;7.70;;;4.20;99.90;;;;;;4997323;28;20027;-67
2022/03/26 03:22:42;;;;;;;8.32;7.18;;;4.20;99.90;;;;;;4997035;28;20114;-67
2022/03/26 03:25:09;;;;;;;9.00;6.97;;;4.30;99.90;;;;;;4993438;28;20035;-68
2022/03/26 03:27:36;;;;;;;10.85;7.05;;;;;;;;;;4993853;28;20030;-67
2022/03/26 03:30:02;;;;;;;8.57;6.60;;;;;;;;;;4998757;28;20555;-68
2022/03/26 03:32:28;;;;;;;7.78;6.95;;;;;;;;;;4996538;28;20077;-67
2022/03/26 03:34:56;;;;;;;9.43;7.40;;;;;;;;;;4995379;28;20027;-67
2022/03/26 03:37:23;;;;;;;11.82;8.68;;;;;;;;;;4996517;28;20048;-67
2022/03/26 03:39:49;;;;;;;12.38;9.45;;;;;;;;;;4992026;28;20035;-67
2022/03/26 03:42:15;;;;;;;10.70;8.32;;;;;;;;;;4998743;28;20407;-67
2022/03/26 03:44:41;;;;;;;10.95;7.97;;;;;;;;;;4996421;28;20126;-67
2022/03/26 03:47:08;;;;;;;8.82;6.65;;;;;;;;;;4996529;28;20042;-68
2022/03/26 03:49:35;;;;;;;9.45;7.28;;;;;;;;;;4996420;28;20121;-67
2022/03/26 03:52:01;;;;;;;10.38;7.68;;;;;;;;;;4992628;28;20042;-67
2022/03/26 03:54:27;;;;;;;8.60;6.60;;;;;;;;;;4994932;28;20440;-68
2022/03/26 03:56:53;;;;;;;9.15;6.78;;;;;;;;;;4997589;28;20030;-67
2022/03/26 03:59:19;;;;;;;9.27;6.72;;;;;;;;;;4996148;28;20031;-67
2022/03/26 04:01:45;;;;;;;8.20;7.03;;;;;;;;;;4996230;28;20039;-67
2022/03/26 04:04:12;;;;;;;9.07;6.40;;;;;;;;;;4992360;28;20101;-67
2022/03/26 04:06:37;;;;;;;11.32;6.85;;;7.30;99.90;;;;;;4992037;28;20046;-67
2022/03/26 04:09:03;;;;;;;7.13;6.28;;;7.40;99.90;;;;;;4997710;28;20444;-67
2022/03/26 04:11:29;;;;;;;8.95;7.07;;;7.30;99.90;;;;;;4995894;28;20093;-67
2022/03/26 04:13:55;;;;;;;10.52;7.07;;;;;;;;;;4994523;28;20037;-67
2022/03/26 04:16:21;;;;;;;9.57;7.35;;;7.40;99.90;;;;;;4996023;28;20390;-67
2022/03/26 04:18:48;;;;;;;8.15;6.45;;;7.90;99.90;;;;;;4991676;28;20043;-67
2022/03/26 04:21:14;;;;;;;8.05;6.80;;;;;;;;;;4997878;28;20134;-66
2022/03/26 04:23:40;;;;;;;9.05;7.40;;;7.90;99.90;;;;;;4995381;28;20442;-67
2022/03/26 04:26:09;;;;;;;8.32;7.20;;;;;;;;;;4995554;28;20109;-67
2022/03/26 04:28:36;;;;;;;8.57;6.68;;;;;;;;;;4992901;28;20022;-66
2022/03/26 04:31:02;;;;;;;10.13;7.28;;;7.60;99.90;;;;;;4990449;28;20519;-67
2022/03/26 04:33:27;;;;;;;7.55;6.38;;;7.50;99.90;;;;;;4995045;28;20030;-67
2022/03/26 04:35:53;;;;;;;8.75;6.53;;;7.80;99.90;;;;;;4996923;28;20041;-66
2022/03/26 04:38:19;;;;;;;8.00;6.60;;;7.90;99.90;;;;;;4995234;28;20485;-67
2022/03/26 04:40:45;;;;;;;8.80;6.70;;;;;;;;;;4995200;28;20026;-67
2022/03/26 04:43:11;;;;;;;9.63;7.15;;;7.90;99.90;;;;;;4992625;28;20056;-66
2022/03/26 04:45:37;;;;;;;8.10;6.75;;;8.00;99.90;;;;;;4992356;28;20030;-66
2022/03/26 04:48:03;;;;;;;8.38;6.53;;;8.00;99.90;;;;;;4997823;28;20069;-67
2022/03/26 04:50:29;;;;;;;11.07;6.95;;;7.90;99.90;;;;;;4995234;28;20048;-67
2022/03/26 04:52:55;;;;;;;8.80;6.95;;;7.70;99.90;;;;;;4993622;28;20030;-67
2022/03/26 04:55:21;;;;;;;10.45;7.30;;;7.80;99.90;;;;;;4995090;28;20026;-66
2022/03/26 04:57:48;;;;;;;9.40;7.05;;;7.60;99.90;;;;;;4975651;28;20031;-66
2022/03/26 05:00:15;;;;;;;9.75;6.95;;;7.50;99.90;;;;;;4997341;28;20029;-67
2022/03/26 05:02:41;;;;;;;9.35;6.75;;;7.60;99.90;;;;;;4994200;28;20086;-67
2022/03/26 05:05:09;;;;;;;10.60;7.38;;;7.70;99.90;;;;;;4994940;28;20033;-66
2022/03/26 05:07:46;;;;;;;10.07;6.88;;;7.40;99.90;;;;;;4994606;28;20517;-67
2022/03/26 05:10:23;;;;;;;13.30;7.18;;;7.40;99.90;;;;;;4992206;28;20052;-66
2022/03/26 05:12:50;;;;;;;9.70;6.70;;;7.60;99.90;;;;;;4975491;28;20358;-67
2022/03/26 05:15:18;;;;;;;7.70;6.63;;;7.40;99.90;;;;;;5004192;28;20018;-67
2022/03/26 05:17:44;;;;;;;8.30;6.47;;;7.40;99.90;;;;;;4996309;28;20034;-67
2022/03/26 05:20:14;;;;;;;8.63;7.38;;;7.40;99.90;;;;;;4994490;28;20030;-67
2022/03/26 05:22:45;;;;;;;7.70;6.85;;;7.40;99.90;;;;;;4993679;28;20061;-67
2022/03/26 05:25:11;;;;;;;9.75;6.72;;;7.30;99.90;;;;;;4993552;28;20025;-67
2022/03/26 05:27:37;;;;;;;9.48;6.90;;;7.20;99.90;;;;;;4991781;28;20058;-67
2022/03/26 05:30:07;;;;;;;11.48;7.00;;;7.10;99.90;;;;;;4996809;28;20523;-67
2022/03/26 05:32:34;;;;;;;8.05;6.63;;;7.20;99.90;;;;;;4993249;28;20081;-67
2022/03/26 05:35:00;;;;;;;10.27;6.80;;;7.20;99.90;;;;;;4994158;28;20034;-67
2022/03/26 05:37:26;;;;;;;9.68;6.95;;;7.20;99.90;;;;;;4994441;28;20026;-67
2022/03/26 05:39:51;;;;;;;9.40;6.47;;;7.20;99.90;;;;;;4990673;28;20054;-67
2022/03/26 05:42:18;;;;;;;8.82;6.93;;;7.10;99.90;;;;;;4996251;28;20058;-67
2022/03/26 05:44:44;;;;;;;7.85;6.47;;;7.30;99.90;;;;;;4993404;28;20030;-67
2022/03/26 05:47:10;;;;;;;10.05;6.75;;;7.30;99.90;;;;;;4994412;28;20030;-67
2022/03/26 05:49:36;;;;;;;8.23;6.50;;;7.30;99.90;;;;;;4992480;28;20056;-67
2022/03/26 05:52:03;;;;;;;9.38;7.57;;;7.30;99.90;;;;;;4990718;28;20038;-67
2022/03/26 05:54:28;;;;;;;8.73;7.40;;;7.30;99.90;;;;;;4993304;28;20026;-67
2022/03/26 05:56:54;;;;;;;10.30;7.85;;;7.20;99.90;;;;;;4995925;28;20396;-67
2022/03/26 05:59:23;;;;;;;11.85;10.43;;;7.20;99.90;;;;;;4994361;28;20097;-67
2022/03/26 06:01:50;;;;;;;12.82;10.93;;;7.20;99.90;;;;;;4993253;28;20056;-66
2022/03/26 06:04:16;;;;;;;10.30;8.48;;;7.20;99.90;;;;;;4993232;28;20056;-66
2022/03/26 06:06:43;;;;;;;13.80;9.80;;;7.20;99.90;;;;;;4990425;28;20034;-67
2022/03/26 06:09:09;;;;;;;9.50;7.65;;;7.30;99.90;;;;;;4996329;28;20460;-67
2022/03/26 06:11:34;;;;;;;8.30;7.50;;;7.20;99.90;;;;;;4992834;28;20126;-66
2022/03/26 06:14:00;;;;;;;11.77;8.00;;;7.30;99.90;;;;;;4994500;28;20605;-66
2022/03/26 06:16:26;;;;;;;10.82;8.48;;;7.40;99.90;;;;;;4994240;28;20045;-67
2022/03/26 06:18:52;;;;;;;11.27;7.28;;;7.40;99.90;;;;;;4989903;28;20396;-66
2022/03/26 06:21:18;;;;;;;11.02;8.55;;;7.50;99.90;;;;;;4995767;28;20330;-67
2022/03/26 06:23:43;;;;;;;9.05;7.22;;;7.60;99.90;;;;;;4993239;28;20404;-67
2022/03/26 06:26:10;;;;;;;8.75;6.93;;;7.70;99.90;;;;;;4974831;28;20027;-67
2022/03/26 06:28:37;;;;;;;8.63;7.30;;;7.80;99.90;;;;;;4983757;28;20037;-68
2022/03/26 06:31:03;;;;;;;10.07;7.07;;;7.90;99.90;;;;;;4991716;28;20069;-66
2022/03/26 06:33:29;;;;;;;8.85;6.93;;;8.20;99.90;;;;;;4992763;28;20027;-68
2022/03/26 06:35:55;;;;;;;11.07;7.60;;;8.50;99.90;;;;;;4995441;28;20057;-67
2022/03/26 06:38:20;;;;;;;8.13;7.20;;;9.10;99.40;;;;;;4993821;28;20427;-67
2022/03/26 06:40:46;;;;;;;8.65;6.88;;;9.30;98.40;;;;;;4992288;28;20606;-68
2022/03/26 06:43:12;;;;;;;9.60;6.60;;;9.30;98.20;;;;;;4992306;28;20057;-67
2022/03/26 06:45:40;;;;;;;9.82;7.00;;;9.50;97.60;;;;;;4990822;28;20069;-67
2022/03/26 06:48:06;;;;;;;9.85;7.38;;;10.10;97.30;;;;;;4995459;28;20034;-68
2022/03/26 06:50:32;;;;;;;9.02;7.43;;;10.50;96.10;;;;;;4992761;28;20035;-67
2022/03/26 06:52:59;;;;;;;10.63;7.00;;;11.10;95.80;;;;;;4994480;28;20034;-68
2022/03/26 06:55:25;;;;;;;8.00;6.80;;;11.20;94.90;;;;;;4997122;28;20030;-68
2022/03/26 06:57:51;;;;;;;8.57;7.63;;;11.40;94.20;;;;;;4992971;28;20118;-68
2022/03/26 07:00:18;;;;;;;8.15;7.35;;;11.40;94.40;;;;;;4999559;28;20117;-67
2022/03/26 07:02:44;;;;;;;8.35;6.57;;;12.40;93.90;;;;;;4995697;28;20036;-67
2022/03/26 07:05:11;;;;;;;11.15;7.30;;;12.40;93.10;;;;;;4996982;28;20053;-67
2022/03/26 07:07:37;;;;;;;10.95;6.80;;;12.60;92.70;;;;;;4995597;28;20026;-67
2022/03/26 07:10:04;;;;;;;10.45;7.30;;;13.80;91.70;;;;;;4994668;28;20030;-68
2022/03/26 07:12:30;;;;;;;10.93;6.82;;;13.70;90.60;;;;;;4996053;28;20068;-68
2022/03/26 07:14:56;;;;;;;8.77;6.40;;;13.60;90.30;;;;;;4998663;28;20472;-68
2022/03/26 07:17:22;;;;;;;10.07;6.75;;;14.70;90.00;;;;;;4996631;28;20511;-68
2022/03/26 07:19:48;;;;;;;8.40;6.57;;;15.40;87.20;;;;;;4995478;28;20030;-68
2022/03/26 07:22:14;;;;;;;8.35;6.43;;;15.20;85.20;;;;;;4995600;28;20364;-68
2022/03/26 07:24:40;;;;;;;8.25;6.63;;;15.40;85.40;;;;;;4993959;28;20030;-68
2022/03/26 07:27:06;;;;;;;9.80;6.32;;;15.90;85.20;;;;;;4998898;28;20065;-68
2022/03/26 07:29:38;;;;;;;8.05;6.05;;;16.10;83.80;;;;;;4995449;28;20057;-68
2022/03/26 07:32:09;;;;;;;8.38;6.57;;;16.10;82.30;;;;;;4996284;28;20110;-67
2022/03/26 07:34:35;;;;;;;7.38;6.35;;;16.30;82.30;;;;;;4996847;28;20025;-68
2022/03/26 07:37:01;;;;;;;9.18;6.43;;;17.00;80.10;;;;;;4993802;28;20030;-68
2022/03/26 07:39:27;;;;;;;9.98;6.03;;;16.80;80.50;;;;;;4996017;28;20023;-69
2022/03/26 07:41:53;;;;;;;8.88;6.25;;;17.60;78.50;;;;;;4997498;28;20050;-67
2022/03/26 07:44:20;;;;;;;9.25;6.57;;;17.40;78.10;;;;;;4996826;28;20034;-68
2022/03/26 07:46:45;;;;;;;9.10;6.43;;;19.20;75.90;;;;;;4994665;28;20061;-68
2022/03/26 07:49:11;;;;;;;9.25;6.88;;;19.00;74.70;;;;;;4995130;28;20137;-69
2022/03/26 07:51:37;;;;;;;7.45;5.97;;;18.10;74.10;;;;;;4993440;28;20125;-68
2022/03/26 07:54:03;;;;;;;10.27;5.85;;;18.30;74.20;;;;;;4998471;28;20026;-69
2022/03/26 07:56:29;;;;;;;8.70;6.32;;;19.30;73.10;;;;;;4996202;28;20030;-67
2022/03/26 07:58:56;;;;;;;6.50;5.90;;;18.80;74.00;;;;;;4995355;28;20034;-68
2022/03/26 08:01:23;;;;;;;8.68;6.07;;;20.10;72.40;;;;;;4995942;28;20025;-67
2022/03/26 08:03:53;;;;;;;8.15;5.72;;;19.20;71.10;;;;;;4990531;28;20047;-68
2022/03/26 08:06:23;;;;;;;10.85;6.18;;;18.80;72.50;;;;;;5006361;28;20447;-68
2022/03/26 08:08:49;;;;;;;7.65;6.03;;;19.10;72.70;;;;;;4995004;28;20034;-69
2022/03/26 08:11:15;;;;;;;9.88;6.55;;;20.50;69.50;;;;;;4996304;28;20026;-68
2022/03/26 08:13:41;;;;;;;7.28;6.28;;;19.80;68.90;;;;;;4995895;28;20053;-68
2022/03/26 08:16:08;;;;;;;7.78;6.15;;;19.10;71.50;;;;;;4993779;28;20035;-67
2022/03/26 08:18:34;;;;;;;7.90;6.32;;;20.20;68.90;;;;;;4993217;28;20072;-69
2022/03/26 08:21:00;;;;;;;7.00;6.20;;;20.00;68.30;;;;;;4997855;28;20056;-69
2022/03/26 08:23:26;;;;;;;8.82;5.70;;;19.90;69.40;;;;;;4994387;28;20506;-70
2022/03/26 08:28:36;;;;;;;7.60;5.75;;;20.70;66.60;;;;;;4994289;28;20044;-65
2022/03/26 08:31:03;;;;;;;7.55;6.03;;;20.60;65.60;;;;;;4993387;28;20498;-71
2022/03/26 08:33:28;;;;;;;6.95;5.50;;;20.20;66.60;;;;;;4994580;28;20057;-71
2022/03/26 08:35:54;;;;;;;7.30;6.20;;;19.80;68.10;;;;;;4996692;28;20034;-70
2022/03/26 08:38:20;;;;;;;8.95;5.65;;;21.00;67.10;;;;;;4994798;28;20064;-67
2022/03/26 08:40:47;;;;;;;8.10;5.85;;;22.40;65.40;;;;;;4995493;28;20134;-67
2022/03/26 08:43:13;;;;;;;6.70;5.68;;;21.20;66.00;;;;;;4993723;28;20061;-67
2022/03/26 08:45:40;;;;;;;7.88;6.30;;;21.60;66.20;;;;;;4992272;28;20068;-70
2022/03/26 08:48:06;;;;;;;8.43;6.70;;;20.80;67.80;;;;;;4996214;28;20034;-68
2022/03/26 08:50:33;;;;;;;9.77;6.20;;;20.90;67.80;;;;;;4995076;28;20022;-71
2022/03/26 08:52:59;;;;;;;7.13;5.72;;;20.90;66.70;;;;;;4995650;28;20050;-71
2022/03/26 08:55:25;;;;;;;8.80;5.70;;;20.40;67.40;;;;;;4995247;28;20430;-71
2022/03/26 08:57:51;;;;;;;7.65;5.82;;;20.50;68.00;;;;;;4990756;28;20030;-68
2022/03/26 09:00:17;;;;;;;9.20;5.82;;;21.70;66.70;;;;;;4995703;28;20026;-69
2022/03/26 09:02:44;;;;;;;8.07;5.63;;;21.30;66.90;;;;;;4993947;28;20053;-72
2022/03/26 09:05:13;;;;;;;8.88;5.88;;;20.90;67.00;;;;;;4993288;28;20495;-69
2022/03/26 09:07:40;;;;;;;9.18;5.80;;;22.20;67.10;;;;;;4994836;28;20335;-68
2022/03/26 09:10:06;;;;;;;6.82;5.32;;;21.00;67.80;;;;;;4992725;28;20570;-69
2022/03/26 09:12:32;;;;;;;8.50;5.28;;;22.00;66.20;;;;;;4992185;28;20041;-70
2022/03/26 09:14:59;;;;;;;8.82;5.40;;;21.60;65.80;;;;;;4995049;28;20495;-70
2022/03/26 09:17:25;;;;;;;7.97;5.78;;;21.60;66.30;;;;;;4993110;28;20058;-69
2022/03/26 09:19:50;;;;;;;6.85;5.18;;;22.00;65.70;;;;;;4994540;28;20066;-69
2022/03/26 09:22:16;;;;;;;5.68;5.07;;;23.40;65.20;;;;;;4994070;28;20034;-69
2022/03/26 09:24:42;;;;;;;8.10;6.00;;;21.50;66.30;;;;;;4990526;28;20093;-70
2022/03/26 09:27:09;;;;;;;9.82;6.20;;;23.20;63.40;;;;;;4995318;28;20084;-70
2022/03/26 09:29:35;;;;;;;9.07;5.32;;;22.70;62.20;;;;;;4994706;28;20479;-68
2022/03/26 09:32:01;;;;;;;6.82;5.32;;;21.90;63.20;;;;;;4994282;28;20820;-67
2022/03/26 09:34:27;;;;;;;5.82;4.93;;;22.60;63.30;;;;;;4993217;28;20022;-68
2022/03/26 09:36:55;;;;;;;6.03;5.07;;;22.70;62.50;;;;;;4989471;28;20122;-68
2022/03/26 09:39:21;;;;;;;7.18;5.25;;;22.10;63.40;;;;;;4995292;28;20057;-68
2022/03/26 09:41:47;;;;;;;10.65;5.57;;;22.30;63.90;;;;;;4993413;28;20511;-68
2022/03/26 09:44:14;;;;;;;10.60;7.50;;;23.60;63.20;;;;;;4992853;28;20050;-68
2022/03/26 09:46:40;;;;;;;5.82;5.10;;;22.10;63.80;;;;;;4994463;28;20116;-68
2022/03/26 09:49:06;;;;;;;6.00;5.05;;;24.20;62.10;;;;;;4992869;28;20061;-69
2022/03/26 09:51:32;;;;;;;7.20;5.10;;;22.10;63.40;;;;;;4992259;28;20042;-69
2022/03/26 09:53:58;;;;;;;6.20;4.97;;;21.90;63.00;;;;;;4996200;28;20027;-68
2022/03/26 09:56:25;;;;;;;6.47;4.85;;;21.30;62.80;;;;;;4992783;28;20096;-68
2022/03/26 09:58:54;;;;;;;7.90;4.80;;;21.80;63.50;;;;;;4994242;28;20050;-68
2022/03/26 10:01:22;;;;;;;5.97;4.78;;;21.90;61.80;;;;;;4994239;28;20068;-68
2022/03/26 10:04:08;;;;;;;6.75;4.72;;;21.90;61.60;;;;;;4975128;28;20031;-68
2022/03/26 10:06:34;;;;;;;5.93;4.88;;;23.00;60.70;;;;;;5004142;28;20463;-68
2022/03/26 10:08:59;;;;;;;5.07;4.47;;;23.60;59.80;;;;;;4994545;28;20427;-68
2022/03/26 10:11:30;;;;;;;5.95;5.00;;;23.50;60.60;;;;;;4993706;28;20038;-68
2022/03/26 10:13:56;;;;;;;8.15;5.75;;;22.80;59.00;;;;;;4994585;28;20582;-68
2022/03/26 10:16:22;;;;;;;5.18;4.50;;;22.90;60.50;;;;;;4994348;28;20105;-69
2022/03/26 10:18:48;;;;;;;9.38;6.53;;;22.90;60.60;;;;;;4990611;28;20027;-68
2022/03/26 10:21:19;;;;;;;7.93;5.22;;;22.60;62.20;;;;;;4996323;28;20053;-67
2022/03/26 10:23:49;;;;;;;5.60;4.57;;;22.30;60.40;;;;;;4994587;28;20026;-69
2022/03/26 10:26:19;;;;;;;8.65;6.25;;;21.80;60.00;;;;;;4993975;28;20053;-68
2022/03/26 10:28:56;;;;;;;7.80;4.57;;;22.20;58.80;;;;;;4997542;28;20026;-69
2022/03/26 10:34:16;;;;;;;6.95;4.47;;;22.00;60.70;;;;;;4982288;28;20041;-69
2022/03/26 10:37:03;;;;;;;7.00;5.13;;;21.70;60.60;;;;;;4994690;28;20093;-70
2022/03/26 10:39:30;;;;;;;7.25;4.53;;;21.40;61.50;;;;;;5007218;28;20038;-71
2022/03/26 10:41:57;;;;;;;8.02;5.35;;;20.60;61.30;;;;;;4999185;28;20042;-68
2022/03/26 10:44:28;;;;;;;7.97;4.53;;;20.80;62.60;;;;;;4996191;28;20491;-69
2022/03/26 10:46:56;;;;;;;5.80;4.40;;;21.10;60.20;;;;;;4997581;28;20029;-69
2022/03/26 10:49:33;;;;;;;5.63;4.40;;;21.20;59.90;;;;;;4997614;28;20030;-70
2022/03/26 10:52:14;;;;;;;19.05;4.55;;;21.00;60.50;;;;;;4994543;28;20423;-71
2022/03/26 10:54:40;;;;;;;7.47;4.20;;;20.70;58.90;;;;;;4993829;28;20035;-69
2022/03/26 10:57:07;;;;;;;7.45;5.18;;;20.60;59.10;;;;;;4999920;28;20130;-69
2022/03/26 10:59:33;;;;;;;7.32;5.65;;;20.80;61.20;;;;;;4994753;28;20038;-68
2022/03/26 11:01:59;;;;;;;5.55;4.38;;;20.50;61.20;;;;;;4995894;28;20149;-69
2022/03/26 11:04:27;;;;;;;6.20;4.40;;;20.70;61.50;;;;;;4997705;28;20100;-68
2022/03/26 11:06:55;;;;;;;5.90;5.05;;;20.50;61.50;;;;;;4993633;28;20027;-68
2022/03/26 11:09:21;;;;;;;6.20;4.63;;;20.50;60.60;;;;;;4997902;28;20506;-70
2022/03/26 11:11:49;;;;;;;6.10;4.45;;;20.50;60.10;;;;;;4997688;28;20125;-71
2022/03/26 11:14:24;;;;;;;7.10;4.85;;;20.60;59.80;;;;;;4995713;28;20073;-68
2022/03/26 11:17:10;;;;;;;8.73;4.60;;;21.40;60.90;;;;;;4997109;28;20033;-69
2022/03/26 11:20:00;;;;;;;8.65;4.60;;;20.90;59.10;;;;;;4996973;28;20036;-69
2022/03/26 11:22:54;;;;;;;5.20;4.70;;;21.40;58.80;;;;;;4995741;28;20512;-67
2022/03/26 11:25:37;;;;;;;5.85;4.53;;;20.70;57.40;;;;;;4996688;28;20040;-71
2022/03/26 11:28:22;;;;;;;8.07;4.25;;;20.50;58.10;;;;;;4981078;28;20065;-69
2022/03/26 11:30:57;;;;;;;7.13;4.32;;;20.80;57.60;;;;;;4977244;28;20046;-68
2022/03/26 11:33:23;;;;;;;7.70;4.60;;;20.10;57.60;;;;;;5006411;28;20042;-68
2022/03/26 11:35:57;;;;;;;8.23;6.50;;;20.80;57.30;;;;;;4997443;28;20502;-68
2022/03/26 11:38:27;;;;;;;7.72;4.10;;;20.50;58.10;;;;;;4996236;28;20027;-68
2022/03/26 11:41:00;;;;;;;7.85;4.70;;;20.70;58.00;;;;;;4994830;28;20558;-68
2022/03/26 11:43:44;;;;;;;6.28;4.10;;;21.00;57.40;;;;;;4996306;28;20057;-70
2022/03/26 11:52:23;;;;;;;6.85;4.10;;;20.80;56.90;;;;;;4991751;28;20041;-69
2022/03/26 11:54:55;;;;;;;5.78;4.35;;;20.60;57.10;;;;;;4974455;28;20038;-67
2022/03/26 11:57:23;;;;;;;5.43;4.25;;;20.70;56.50;;;;;;5006387;28;20025;-69
2022/03/26 11:59:50;;;;;;;6.65;4.60;;;20.50;56.60;;;;;;4995851;28;20022;-68
2022/03/26 12:02:21;;;;;;;5.53;4.30;;;20.30;56.90;;;;;;4995006;28;20034;-69
2022/03/26 12:04:53;;;;;;;5.20;4.30;;;20.30;56.10;;;;;;4996154;28;20403;-69
2022/03/26 12:07:21;;;;;;;7.35;4.45;;;20.60;56.10;;;;;;4995489;28;20030;-67
2022/03/26 12:10:02;;;;;;;6.55;4.20;;;20.80;57.20;;;;;;4992116;28;20086;-68
2022/03/26 12:12:56;;;;;;;7.85;4.90;;;20.60;55.10;;;;;;5005856;28;20049;-67
2022/03/26 12:15:24;;;;;;;10.00;5.85;;;21.00;56.90;;;;;;5005747;28;20471;-68
2022/03/26 12:18:05;;;;;;;7.20;3.55;;;20.60;56.80;;;;;;4995812;28;20108;-68
2022/03/26 12:20:41;;;;;;;5.72;4.07;;;20.40;57.20;;;;;;4994123;28;20033;-70
2022/03/26 12:23:15;;;;;;;6.05;4.47;;;20.20;57.20;;;;;;4995508;28;20077;-69
2022/03/26 12:25:47;;;;;;;4.90;4.10;;;20.10;57.60;;;;;;4995690;28;20029;-67
2022/03/26 12:28:14;;;;;;;7.28;4.80;;;20.30;58.20;;;;;;4994618;28;20030;-66
2022/03/26 12:30:45;;;;;;;7.32;5.30;;;20.90;58.00;;;;;;4992609;28;20037;-66
2022/03/26 12:33:13;;;;;;;4.43;3.60;;;20.50;55.80;;;;;;4997035;28;20145;-67
2022/03/26 12:35:38;;;;;;;5.57;4.10;;;20.60;56.30;;;;;;4995654;28;20038;-68
2022/03/26 12:38:06;;;;;;;5.07;4.03;;;21.00;55.60;;;;;;4995611;28;20030;-66
2022/03/26 12:40:33;;;;;;;5.15;3.85;;;21.10;56.60;;;;;;4994203;28;20025;-68
2022/03/26 12:42:59;;;;;;;5.25;3.70;;;20.70;56.00;;;;;;4992194;28;20053;-67
2022/03/26 12:45:24;;;;;;;4.68;3.80;;;20.80;55.80;;;;;;4995566;28;20034;-67
2022/03/26 12:47:50;;;;;;;5.57;3.95;;;21.00;55.20;;;;;;4996206;28;20041;-67
2022/03/26 12:50:23;;;;;;;5.55;4.75;;;20.80;56.60;;;;;;4994368;28;20030;-67
2022/03/26 12:52:50;;;;;;;4.93;3.70;;;20.90;56.90;;;;;;4995194;28;20042;-67
2022/03/26 12:55:18;;;;;;;5.15;3.25;;;21.00;55.00;;;;;;4994638;28;20022;-67
2022/03/26 13:00:31;;;;;;;5.20;3.70;;;20.90;54.10;;;;;;5005603;28;20032;-66
2022/03/26 13:03:10;;;;;;;7.05;4.15;;;20.80;54.70;;;;;;4995425;28;20125;-70
2022/03/26 13:05:38;;;;;;;5.40;3.75;;;20.70;55.50;;;;;;4994768;28;20113;-67
2022/03/26 13:08:10;;;;;;;6.10;4.18;;;20.60;55.60;;;;;;4995300;28;20080;-67
2022/03/26 13:10:38;;;;;;;4.90;3.40;;;20.60;55.60;;;;;;4993608;28;20054;-67
2022/03/26 13:13:05;;;;;;;5.30;3.97;;;20.60;56.10;;;;;;4992481;28;20125;-67
2022/03/26 13:15:32;;;;;;;7.20;3.83;;;20.90;55.30;;;;;;4993592;28;20026;-68